Celebrity Solstice — 9HRJ9 — position and weather

sailwx.info

Track history (hours):
 
Tides and Currents Weather Stations Pressure Air Temp Water Temp Dewpoint Dewpoint Depression Visibility Wind Speed Wind Dir Waves Ship Positions

Celebrity Solstice

Last reported at 2016-Aug-26 00:27 UTC. Time now 2016-Aug-26 04:51 UTC.
Position N 48°25' W 123°23'.

Length 316 m; draft 9 m.

Type: Passenger vessel. MMSI: 249409000.

Date/timePositionNaut miles runAvg speedWind from/ knotsBaromVisibWave heightAir tempDewpointWater temp
2016-Aug-26 00:27N 48°25' W 123°23'4 4.3
2016-Aug-25 23:34N 48°21' W 123°24'1313.3
2016-Aug-25 22:33N 48°14' W 123°41'1716.5
2016-Aug-25 21:32N 48°17' W 124°06'1716.8
2016-Aug-25 20:33N 48°24' W 124°28'1817.8
2016-Aug-25 19:33N 48°28' W 124°54'1818.3
2016-Aug-25 18:33N 48°32' W 125°21'2120.8
2016-Aug-25 17:33N 48°42' W 125°49'2020.5
2016-Aug-25 16:33N 48°55' W 126°13'2121.0
2016-Aug-25 15:33N 49°08' W 126°38'2121.1
2016-Aug-25 14:33N 49°21' W 127°03'2222.1
2016-Aug-25 13:33N 49°35' W 127°30'5320.6
2016-Aug-25 11:00N 50°06' W 128°36'60417.3 340 / 251030.010.8 15.0 16.2
2016-Aug-24 00:00N 59°24' W 135°18'18 1.5 210 / 261028.0 5.4 17.7 14.4
2016-Aug-23 12:00N 59°06' W 135°12'121 5.1 170 / 141024.0 5.4 14.0 15.7
2016-Aug-22 12:00N 57°12' W 133°54'37410.1 270 / 81017.8 5.4 13.7 13.8
2016-Aug-20 23:00N 51°30' W 129°36'14615.4 270 / 261017.0 5.4 16.7 16.4
2016-Aug-20 13:31N 49°36' W 127°13'1616.1
2016-Aug-20 12:33N 49°26' W 126°54'1616.6
2016-Aug-20 11:34N 49°15' W 126°35'1717.5
2016-Aug-20 10:33N 49°04' W 126°14'1817.5
2016-Aug-20 09:33N 48°54' W 125°52'1818.0
2016-Aug-20 08:33N 48°42' W 125°31'1818.2
2016-Aug-20 07:34N 48°32' W 125°09'1818.2
2016-Aug-20 06:33N 48°30' W 124°41'1919.0
2016-Aug-20 05:33N 48°23' W 124°15'1919.0
2016-Aug-20 04:33N 48°17' W 123°48'1717.4
2016-Aug-20 03:33N 48°10' W 123°24'1716.7
2016-Aug-20 02:32N 48°12' W 122°58'1818.3
2016-Aug-20 01:33N 48°01' W 122°37'1919.5
2016-Aug-20 00:33N 47°43' W 122°26'6 5.8
2016-Aug-19 23:31N 47°38' W 122°23'0 0.0
2016-Aug-19 22:31N 47°38' W 122°23'0 0.0
2016-Aug-19 21:31N 47°38' W 122°23'0 0.0
2016-Aug-19 20:31N 47°38' W 122°23'0 0.0
2016-Aug-19 19:31N 47°38' W 122°23'0 0.0
2016-Aug-19 18:31N 47°38' W 122°23'0 0.0
2016-Aug-19 17:31N 47°38' W 122°23'0 0.0
2016-Aug-19 16:31N 47°38' W 122°23'0 0.0
2016-Aug-19 15:31N 47°38' W 122°23'0 0.0
2016-Aug-19 14:31N 47°38' W 122°23'0 0.0
2016-Aug-19 13:28N 47°38' W 122°23'0 0.3
2016-Aug-19 12:33N 47°37' W 122°23'9 8.9
2016-Aug-19 11:33N 47°46' W 122°27'1514.5
2016-Aug-19 10:33N 47°59' W 122°36'1514.6
2016-Aug-19 09:33N 48°11' W 122°50'1515.3
2016-Aug-19 08:33N 48°11' W 123°12'1211.7
2016-Aug-19 07:34N 48°16' W 123°29'10 1.6
2016-Aug-19 01:21N 48°25' W 123°23'0 0.0
2016-Aug-19 00:33N 48°25' W 123°23'3 3.1
2016-Aug-18 23:33N 48°22' W 123°24'1414.1
2016-Aug-18 22:33N 48°14' W 123°41'1818.3
2016-Aug-18 21:33N 48°17' W 124°08'1818.2
2016-Aug-18 20:33N 48°25' W 124°33'1817.2
2016-Aug-18 19:30N 48°29' W 124°60'1617.1
2016-Aug-18 18:33N 48°33' W 125°23'1717.1
2016-Aug-18 17:33N 48°41' W 125°46'1717.2
2016-Aug-18 16:33N 48°52' W 126°06'1717.3
2016-Aug-18 15:33N 49°02' W 126°27'1817.8
2016-Aug-18 14:33N 49°14' W 126°48'1918.5
2016-Aug-18 13:33N 49°25' W 127°10'29220.1
2016-Aug-17 23:00N 52°54' W 132°36'20320.3 320 / 241030.010.8 17.7 16.0
2016-Aug-17 13:00N 56°06' W 134°30'181 7.3 300 / 21031.410.8 1.012.7 14.9
2016-Aug-16 12:00N 59°06' W 135°12'   170 / 201022.0 5.4 14.3 15.5
Track history (hours):
 
Tides and Currents Weather Stations Pressure Air Temp Water Temp Dewpoint Dewpoint Depression Visibility Wind Speed Wind Dir Waves Ship Positions

Celebrity Solstice

Last reported at 2016-Aug-26 00:27 UTC. Time now 2016-Aug-26 04:51 UTC.
Position N 48°25' W 123°23'.

Length 316 m; draft 9 m.

Type: Passenger vessel. MMSI: 249409000.

Date/timePositionNaut miles runAvg speedWind from/ knotsBaromVisibWave heightAir tempDewpointWater temp
2016-Aug-26 00:27N 48°25' W 123°23'4 4.3
2016-Aug-25 23:34N 48°21' W 123°24'1313.3
2016-Aug-25 22:33N 48°14' W 123°41'1716.5
2016-Aug-25 21:32N 48°17' W 124°06'1716.8
2016-Aug-25 20:33N 48°24' W 124°28'1817.8
2016-Aug-25 19:33N 48°28' W 124°54'1818.3
2016-Aug-25 18:33N 48°32' W 125°21'2120.8
2016-Aug-25 17:33N 48°42' W 125°49'2020.5
2016-Aug-25 16:33N 48°55' W 126°13'2121.0
2016-Aug-25 15:33N 49°08' W 126°38'2121.1
2016-Aug-25 14:33N 49°21' W 127°03'2222.1
2016-Aug-25 13:33N 49°35' W 127°30'5320.6
2016-Aug-25 11:00N 50°06' W 128°36'60417.3 340 / 251030.010.8 15.0 16.2
2016-Aug-24 00:00N 59°24' W 135°18'18 1.5 210 / 261028.0 5.4 17.7 14.4
2016-Aug-23 12:00N 59°06' W 135°12'121 5.1 170 / 141024.0 5.4 14.0 15.7
2016-Aug-22 12:00N 57°12' W 133°54'37410.1 270 / 81017.8 5.4 13.7 13.8
2016-Aug-20 23:00N 51°30' W 129°36'14615.4 270 / 261017.0 5.4 16.7 16.4
2016-Aug-20 13:31N 49°36' W 127°13'1616.1
2016-Aug-20 12:33N 49°26' W 126°54'1616.6
2016-Aug-20 11:34N 49°15' W 126°35'1717.5
2016-Aug-20 10:33N 49°04' W 126°14'1817.5
2016-Aug-20 09:33N 48°54' W 125°52'1818.0
2016-Aug-20 08:33N 48°42' W 125°31'1818.2
2016-Aug-20 07:34N 48°32' W 125°09'1818.2
2016-Aug-20 06:33N 48°30' W 124°41'1919.0
2016-Aug-20 05:33N 48°23' W 124°15'1919.0
2016-Aug-20 04:33N 48°17' W 123°48'1717.4
2016-Aug-20 03:33N 48°10' W 123°24'1716.7
2016-Aug-20 02:32N 48°12' W 122°58'1818.3
2016-Aug-20 01:33N 48°01' W 122°37'1919.5
2016-Aug-20 00:33N 47°43' W 122°26'6 5.8
2016-Aug-19 23:31N 47°38' W 122°23'0 0.0
2016-Aug-19 22:31N 47°38' W 122°23'0 0.0
2016-Aug-19 21:31N 47°38' W 122°23'0 0.0
2016-Aug-19 20:31N 47°38' W 122°23'0 0.0
2016-Aug-19 19:31N 47°38' W 122°23'0 0.0
2016-Aug-19 18:31N 47°38' W 122°23'0 0.0
2016-Aug-19 17:31N 47°38' W 122°23'0 0.0
2016-Aug-19 16:31N 47°38' W 122°23'0 0.0
2016-Aug-19 15:31N 47°38' W 122°23'0 0.0
2016-Aug-19 14:31N 47°38' W 122°23'0 0.0
2016-Aug-19 13:28N 47°38' W 122°23'0 0.3
2016-Aug-19 12:33N 47°37' W 122°23'9 8.9
2016-Aug-19 11:33N 47°46' W 122°27'1514.5
2016-Aug-19 10:33N 47°59' W 122°36'1514.6
2016-Aug-19 09:33N 48°11' W 122°50'1515.3
2016-Aug-19 08:33N 48°11' W 123°12'1211.7
2016-Aug-19 07:34N 48°16' W 123°29'10 1.6
2016-Aug-19 01:21N 48°25' W 123°23'0 0.0
2016-Aug-19 00:33N 48°25' W 123°23'3 3.1
2016-Aug-18 23:33N 48°22' W 123°24'1414.1
2016-Aug-18 22:33N 48°14' W 123°41'1818.3
2016-Aug-18 21:33N 48°17' W 124°08'1818.2
2016-Aug-18 20:33N 48°25' W 124°33'1817.2
2016-Aug-18 19:30N 48°29' W 124°60'1617.1
2016-Aug-18 18:33N 48°33' W 125°23'1717.1
2016-Aug-18 17:33N 48°41' W 125°46'1717.2
2016-Aug-18 16:33N 48°52' W 126°06'1717.3
2016-Aug-18 15:33N 49°02' W 126°27'1817.8
2016-Aug-18 14:33N 49°14' W 126°48'1918.5
2016-Aug-18 13:33N 49°25' W 127°10'29220.1
2016-Aug-17 23:00N 52°54' W 132°36'20320.3 320 / 241030.010.8 17.7 16.0
2016-Aug-17 13:00N 56°06' W 134°30'181 7.3 300 / 21031.410.8 1.012.7 14.9
2016-Aug-16 12:00N 59°06' W 135°12'   170 / 201022.0 5.4 14.3 15.5

Dump ship's entire track history